createdAt,value
2022-09-26T06:14:52.533Z,100.00
2022-09-26T06:24:52.442Z,100.00
2022-09-26T06:34:52.836Z,100.00
2022-09-26T06:44:52.661Z,100.00
2022-09-26T06:54:52.528Z,100.00
2022-09-26T07:04:52.475Z,100.00
2022-09-26T07:14:53.825Z,100.00
2022-09-26T07:24:52.689Z,100.00
2022-09-26T07:34:52.549Z,100.00
2022-09-26T07:45:21.837Z,100.00
2022-09-26T07:54:52.625Z,100.00
2022-09-26T08:04:54.575Z,100.00
2022-09-26T08:14:52.541Z,100.00
2022-09-26T08:24:52.724Z,100.00
2022-09-26T08:34:52.438Z,100.00
2022-09-26T08:44:52.654Z,100.00
2022-09-26T08:54:52.698Z,100.00
2022-09-26T09:04:54.051Z,100.00
2022-09-26T09:15:13.756Z,99.18
2022-09-26T09:24:52.756Z,98.36
2022-09-26T09:34:53.954Z,97.75
2022-09-26T09:44:52.728Z,92.91
2022-09-26T09:54:52.629Z,92.39
2022-09-26T10:04:52.584Z,91.43
2022-09-26T10:14:52.820Z,90.83
2022-09-26T10:24:52.795Z,86.57
2022-09-26T10:34:52.793Z,87.42
2022-09-26T10:44:52.731Z,83.57
2022-09-26T10:54:52.784Z,83.40
2022-09-26T11:04:52.826Z,83.70
2022-09-26T11:14:52.798Z,84.19
2022-09-26T11:24:52.813Z,90.98
2022-09-26T11:34:52.718Z,89.15
2022-09-26T11:44:52.696Z,90.86
2022-09-26T11:54:52.831Z,87.43
2022-09-26T12:04:52.791Z,86.78
2022-09-26T12:14:52.847Z,89.90
2022-09-26T12:24:52.837Z,95.18
2022-09-26T12:34:52.705Z,100.00
2022-09-26T12:44:52.751Z,100.00
2022-09-26T12:54:52.754Z,100.00
2022-09-26T13:04:52.890Z,100.00
2022-09-26T13:14:52.826Z,100.00
2022-09-26T13:24:52.915Z,100.00
2022-09-26T13:34:52.808Z,100.00
2022-09-26T13:44:52.771Z,100.00
2022-09-26T13:54:52.937Z,100.00
2022-09-26T14:04:52.807Z,100.00
2022-09-26T14:14:52.811Z,100.00
2022-09-26T14:24:52.826Z,100.00
2022-09-26T14:34:52.810Z,100.00
2022-09-26T14:44:52.919Z,100.00
2022-09-26T14:54:53.117Z,100.00
2022-09-26T15:04:53.040Z,100.00
2022-09-26T15:14:52.957Z,100.00
2022-09-26T15:24:53.105Z,100.00
2022-09-26T15:34:52.991Z,100.00
2022-09-26T15:44:52.937Z,100.00
2022-09-26T15:54:53.057Z,100.00
2022-09-26T16:04:53.129Z,100.00
2022-09-26T16:14:53.038Z,100.00
2022-09-26T16:24:53.166Z,100.00
2022-09-26T16:34:53.128Z,100.00
2022-09-26T16:44:53.002Z,100.00
2022-09-26T16:54:53.196Z,100.00
2022-09-26T17:04:53.177Z,100.00
2022-09-26T17:14:53.192Z,100.00
2022-09-26T17:24:53.115Z,100.00
2022-09-26T17:34:53.205Z,100.00
2022-09-26T17:44:53.183Z,100.00
2022-09-26T17:54:53.238Z,100.00
2022-09-26T18:04:53.161Z,100.00
2022-09-26T18:14:53.094Z,100.00
2022-09-26T18:24:53.202Z,100.00
2022-09-26T18:34:53.315Z,100.00
2022-09-26T18:44:53.495Z,100.00
2022-09-26T18:54:53.523Z,100.00
2022-09-26T19:04:53.764Z,100.00
2022-09-26T19:14:53.908Z,100.00
